sensor_id;sensor_type;location;lat;lon;timestamp;pressure;altitude;pressure_sealevel;temperature;humidity
44309;BME280;30022;55.846;37.340;2023-01-29T00:01:36;47210.69;;;-143.51;100.00
44309;BME280;30022;55.846;37.340;2023-01-29T00:04:02;47200.81;;;-143.51;100.00
44309;BME280;30022;55.846;37.340;2023-01-29T00:06:28;47210.69;;;-143.51;100.00
44309;BME280;30022;55.846;37.340;2023-01-29T00:08:53;47216.63;;;-143.51;100.00
44309;BME280;30022;55.846;37.340;2023-01-29T00:11:19;47214.63;;;-143.51;100.00
44309;BME280;30022;55.846;37.340;2023-01-29T00:13:45;47234.38;;;-143.51;100.00
44309;BME280;30022;55.846;37.340;2023-01-29T00:16:11;47204.75;;;-143.51;100.00
44309;BME280;30022;55.846;37.340;2023-01-29T00:18:37;47216.63;;;-143.51;100.00
44309;BME280;30022;55.846;37.340;2023-01-29T00:21:03;47226.50;;;-143.51;100.00
44309;BME280;30022;55.846;37.340;2023-01-29T00:23:28;47262.03;;;-143.51;100.00
44309;BME280;30022;55.846;37.340;2023-01-29T00:25:54;47216.63;;;-143.51;100.00
44309;BME280;30022;55.846;37.340;2023-01-29T00:28:23;47248.22;;;-143.51;100.00
44309;BME280;30022;55.846;37.340;2023-01-29T00:30:49;47260.06;;;-143.51;100.00
44309;BME280;30022;55.846;37.340;2023-01-29T00:33:14;47242.28;;;-143.51;100.00
44309;BME280;30022;55.846;37.340;2023-01-29T00:35:40;47250.19;;;-143.51;100.00
44309;BME280;30022;55.846;37.340;2023-01-29T00:38:06;47256.13;;;-143.51;100.00
44309;BME280;30022;55.846;37.340;2023-01-29T00:40:32;47293.66;;;-143.51;100.00
44309;BME280;30022;55.846;37.340;2023-01-29T00:43:20;47267.97;;;-143.51;100.00
44309;BME280;30022;55.846;37.340;2023-01-29T00:46:04;47250.19;;;-143.51;100.00
44309;BME280;30022;55.846;37.340;2023-01-29T00:48:31;47246.25;;;-143.51;100.00
44309;BME280;30022;55.846;37.340;2023-01-29T00:50:57;47228.47;;;-143.51;100.00
44309;BME280;30022;55.846;37.340;2023-01-29T00:53:22;47175.13;;;-143.51;100.00
44309;BME280;30022;55.846;37.340;2023-01-29T00:55:48;47192.91;;;-143.51;100.00
44309;BME280;30022;55.846;37.340;2023-01-29T00:58:13;47171.19;;;-143.51;100.00
44309;BME280;30022;55.846;37.340;2023-01-29T01:00:49;47145.50;;;-143.51;100.00
44309;BME280;30022;55.846;37.340;2023-01-29T01:03:15;47125.75;;;-143.51;100.00
44309;BME280;30022;55.846;37.340;2023-01-29T01:05:40;47125.75;;;-143.51;100.00
44309;BME280;30022;55.846;37.340;2023-01-29T01:08:07;47115.88;;;-143.51;100.00
44309;BME280;30022;55.846;37.340;2023-01-29T01:11:04;47102.06;;;-143.51;100.00
44309;BME280;30022;55.846;37.340;2023-01-29T01:13:30;47106.00;;;-143.51;100.00
44309;BME280;30022;55.846;37.340;2023-01-29T01:15:56;47107.97;;;-143.51;100.00
44309;BME280;30022;55.846;37.340;2023-01-29T01:18:21;47058.59;;;-143.51;100.00
44309;BME280;30022;55.846;37.340;2023-01-29T01:20:47;47086.25;;;-143.51;100.00
44309;BME280;30022;55.846;37.340;2023-01-29T01:23:17;47100.09;;;-143.51;100.00
44309;BME280;30022;55.846;37.340;2023-01-29T01:25:42;47115.88;;;-143.51;100.00
44309;BME280;30022;55.846;37.340;2023-01-29T01:28:08;47109.97;;;-143.51;100.00
44309;BME280;30022;55.846;37.340;2023-01-29T01:30:35;47123.78;;;-143.51;100.00
44309;BME280;30022;55.846;37.340;2023-01-29T01:33:00;47107.97;;;-143.51;100.00
44309;BME280;30022;55.846;37.340;2023-01-29T01:35:26;47096.13;;;-143.51;100.00
44309;BME280;30022;55.846;37.340;2023-01-29T01:37:52;47052.69;;;-143.51;100.00
44309;BME280;30022;55.846;37.340;2023-01-29T01:40:18;47042.81;;;-143.51;100.00
44309;BME280;30022;55.846;37.340;2023-01-29T01:42:51;47072.44;;;-143.51;100.00
44309;BME280;30022;55.846;37.340;2023-01-29T01:47:47;47113.91;;;-143.51;100.00
44309;BME280;30022;55.846;37.340;2023-01-29T01:50:30;47088.22;;;-143.51;100.00
44309;BME280;30022;55.846;37.340;2023-01-29T01:53:00;47088.22;;;-143.51;100.00
44309;BME280;30022;55.846;37.340;2023-01-29T01:55:28;47090.22;;;-143.51;100.00
44309;BME280;30022;55.846;37.340;2023-01-29T01:57:57;47054.66;;;-143.51;100.00
44309;BME280;30022;55.846;37.340;2023-01-29T02:00:25;47088.22;;;-143.51;100.00
44309;BME280;30022;55.846;37.340;2023-01-29T02:02:51;47056.63;;;-143.51;100.00
44309;BME280;30022;55.846;37.340;2023-01-29T02:05:36;47058.59;;;-143.51;100.00
44309;BME280;30022;55.846;37.340;2023-01-29T02:08:29;47072.44;;;-143.51;100.00
44309;BME280;30022;55.846;37.340;2023-01-29T02:11:14;47064.53;;;-143.51;100.00
44309;BME280;30022;55.846;37.340;2023-01-29T02:13:41;47137.59;;;-143.51;100.00
44309;BME280;30022;55.846;37.340;2023-01-29T02:16:07;47153.41;;;-143.51;100.00
44309;BME280;30022;55.846;37.340;2023-01-29T02:18:32;47117.84;;;-143.51;100.00
44309;BME280;30022;55.846;37.340;2023-01-29T02:33:36;47133.66;;;-143.51;100.00
44309;BME280;30022;55.846;37.340;2023-01-29T02:36:26;47096.13;;;-143.51;100.00
44309;BME280;30022;55.846;37.340;2023-01-29T02:46:36;47135.63;;;-143.51;100.00
44309;BME280;30022;55.846;37.340;2023-01-29T02:51:59;47102.06;;;-143.51;100.00
44309;BME280;30022;55.846;37.340;2023-01-29T02:54:30;47090.22;;;-143.51;100.00
44309;BME280;30022;55.846;37.340;2023-01-29T02:57:06;47092.19;;;-143.51;100.00
44309;BME280;30022;55.846;37.340;2023-01-29T02:59:37;47062.56;;;-143.51;100.00
44309;BME280;30022;55.846;37.340;2023-01-29T03:02:07;47121.81;;;-143.51;100.00
44309;BME280;30022;55.846;37.340;2023-01-29T03:04:35;47121.81;;;-143.51;100.00
44309;BME280;30022;55.846;37.340;2023-01-29T03:07:08;47117.84;;;-143.51;100.00
44309;BME280;30022;55.846;37.340;2023-01-29T03:09:40;47092.19;;;-143.51;100.00
44309;BME280;30022;55.846;37.340;2023-01-29T03:12:12;47078.34;;;-143.51;100.00
44309;BME280;30022;55.846;37.340;2023-01-29T03:15:04;47068.47;;;-143.51;100.00
44309;BME280;30022;55.846;37.340;2023-01-29T03:17:50;47076.38;;;-143.51;100.00
44309;BME280;30022;55.846;37.340;2023-01-29T03:20:17;47100.09;;;-143.51;100.00
44309;BME280;30022;55.846;37.340;2023-01-29T03:22:48;47107.97;;;-143.51;100.00
44309;BME280;30022;55.846;37.340;2023-01-29T03:25:16;47106.00;;;-143.51;100.00
44309;BME280;30022;55.846;37.340;2023-01-29T03:28:01;47113.91;;;-143.51;100.00
44309;BME280;30022;55.846;37.340;2023-01-29T03:30:47;47104.03;;;-143.51;100.00
44309;BME280;30022;55.846;37.340;2023-01-29T03:33:53;47092.19;;;-143.51;100.00
44309;BME280;30022;55.846;37.340;2023-01-29T03:36:28;47088.22;;;-143.51;100.00
44309;BME280;30022;55.846;37.340;2023-01-29T03:39:05;47062.56;;;-143.51;100.00
44309;BME280;30022;55.846;37.340;2023-01-29T03:41:35;47068.47;;;-143.51;100.00
44309;BME280;30022;55.846;37.340;2023-01-29T03:44:08;47094.16;;;-143.51;100.00
44309;BME280;30022;55.846;37.340;2023-01-29T03:46:37;47092.19;;;-143.51;100.00
44309;BME280;30022;55.846;37.340;2023-01-29T03:49:14;47096.13;;;-143.51;100.00
44309;BME280;30022;55.846;37.340;2023-01-29T03:54:17;47072.44;;;-143.51;100.00
44309;BME280;30022;55.846;37.340;2023-01-29T03:57:07;47096.13;;;-143.51;100.00
44309;BME280;30022;55.846;37.340;2023-01-29T04:00:00;47076.38;;;-143.51;100.00
44309;BME280;30022;55.846;37.340;2023-01-29T04:02:54;47100.09;;;-143.51;100.00
44309;BME280;30022;55.846;37.340;2023-01-29T04:05:24;47086.25;;;-143.51;100.00
44309;BME280;30022;55.846;37.340;2023-01-29T04:08:20;47088.22;;;-143.51;100.00
44309;BME280;30022;55.846;37.340;2023-01-29T04:10:48;47111.94;;;-143.51;100.00
44309;BME280;30022;55.846;37.340;2023-01-29T04:13:15;47104.03;;;-143.51;100.00
44309;BME280;30022;55.846;37.340;2023-01-29T04:15:49;47048.72;;;-143.51;100.00
44309;BME280;30022;55.846;37.340;2023-01-29T04:18:23;47072.44;;;-143.51;100.00
44309;BME280;30022;55.846;37.340;2023-01-29T04:21:04;47056.63;;;-143.51;100.00
44309;BME280;30022;55.846;37.340;2023-01-29T04:23:32;47111.94;;;-143.51;100.00
44309;BME280;30022;55.846;37.340;2023-01-29T04:26:02;47109.97;;;-143.51;100.00
44309;BME280;30022;55.846;37.340;2023-01-29T04:28:43;47113.91;;;-143.51;100.00
44309;BME280;30022;55.846;37.340;2023-01-29T04:31:11;47111.94;;;-143.51;100.00
44309;BME280;30022;55.846;37.340;2023-01-29T04:36:48;47100.09;;;-143.51;100.00
44309;BME280;30022;55.846;37.340;2023-01-29T04:41:41;47125.75;;;-143.51;100.00
44309;BME280;30022;55.846;37.340;2023-01-29T04:44:20;47100.09;;;-143.51;100.00
44309;BME280;30022;55.846;37.340;2023-01-29T04:49:20;47100.09;;;-143.51;100.00
44309;BME280;30022;55.846;37.340;2023-01-29T04:52:54;47102.06;;;-143.51;100.00
44309;BME280;30022;55.846;37.340;2023-01-29T04:54:50;47106.00;;;-143.51;100.00
44309;BME280;30022;55.846;37.340;2023-01-29T04:57:19;47092.19;;;-143.51;100.00
44309;BME280;30022;55.846;37.340;2023-01-29T04:59:51;47096.13;;;-143.51;100.00
44309;BME280;30022;55.846;37.340;2023-01-29T05:02:19;47076.38;;;-143.51;100.00
44309;BME280;30022;55.846;37.340;2023-01-29T05:04:46;47062.56;;;-143.51;100.00
44309;BME280;30022;55.846;37.340;2023-01-29T05:07:14;47062.56;;;-143.51;100.00
44309;BME280;30022;55.846;37.340;2023-01-29T05:09:41;47044.78;;;-143.51;100.00
44309;BME280;30022;55.846;37.340;2023-01-29T05:12:08;47068.47;;;-143.51;100.00
44309;BME280;30022;55.846;37.340;2023-01-29T05:14:35;47066.50;;;-143.51;100.00
44309;BME280;30022;55.846;37.340;2023-01-29T05:17:06;47086.25;;;-143.51;100.00
44309;BME280;30022;55.846;37.340;2023-01-29T05:19:34;47102.06;;;-143.51;100.00
44309;BME280;30022;55.846;37.340;2023-01-29T05:22:00;47078.34;;;-143.51;100.00
44309;BME280;30022;55.846;37.340;2023-01-29T05:24:29;47070.47;;;-143.51;100.00
44309;BME280;30022;55.846;37.340;2023-01-29T05:26:55;47072.44;;;-143.51;100.00
44309;BME280;30022;55.846;37.340;2023-01-29T05:29:40;47072.44;;;-143.51;100.00
44309;BME280;30022;55.846;37.340;2023-01-29T05:32:08;47078.34;;;-143.51;100.00
44309;BME280;30022;55.846;37.340;2023-01-29T05:34:33;47058.59;;;-143.51;100.00
44309;BME280;30022;55.846;37.340;2023-01-29T05:36:59;47046.75;;;-143.51;100.00
44309;BME280;30022;55.846;37.340;2023-01-29T05:39:24;47060.59;;;-143.51;100.00
44309;BME280;30022;55.846;37.340;2023-01-29T05:41:50;47052.69;;;-143.51;100.00
44309;BME280;30022;55.846;37.340;2023-01-29T05:44:16;47076.38;;;-143.51;100.00
44309;BME280;30022;55.846;37.340;2023-01-29T05:46:41;47070.47;;;-143.51;100.00
44309;BME280;30022;55.846;37.340;2023-01-29T05:49:08;47068.47;;;-143.51;100.00
44309;BME280;30022;55.846;37.340;2023-01-29T05:51:33;47064.53;;;-143.51;100.00
44309;BME280;30022;55.846;37.340;2023-01-29T05:53:59;47052.69;;;-143.51;100.00
44309;BME280;30022;55.846;37.340;2023-01-29T05:56:25;47072.44;;;-143.51;100.00
44309;BME280;30022;55.846;37.340;2023-01-29T05:58:50;47080.34;;;-143.51;100.00
44309;BME280;30022;55.846;37.340;2023-01-29T06:01:17;47088.22;;;-143.51;100.00
44309;BME280;30022;55.846;37.340;2023-01-29T06:03:43;47090.22;;;-143.51;100.00
44309;BME280;30022;55.846;37.340;2023-01-29T06:06:09;47086.25;;;-143.51;100.00
44309;BME280;30022;55.846;37.340;2023-01-29T06:08:35;47052.69;;;-143.51;100.00
44309;BME280;30022;55.846;37.340;2023-01-29T06:11:00;47048.72;;;-143.51;100.00
44309;BME280;30022;55.846;37.340;2023-01-29T06:13:26;47064.53;;;-143.51;100.00
44309;BME280;30022;55.846;37.340;2023-01-29T06:15:52;47078.34;;;-143.51;100.00
44309;BME280;30022;55.846;37.340;2023-01-29T06:18:17;47066.50;;;-143.51;100.00
44309;BME280;30022;55.846;37.340;2023-01-29T06:20:43;47028.97;;;-143.51;100.00
44309;BME280;30022;55.846;37.340;2023-01-29T06:23:09;47042.81;;;-143.51;100.00
44309;BME280;30022;55.846;37.340;2023-01-29T06:25:34;47078.34;;;-143.51;100.00
44309;BME280;30022;55.846;37.340;2023-01-29T06:28:00;47068.47;;;-143.51;100.00
44309;BME280;30022;55.846;37.340;2023-01-29T06:30:26;47052.69;;;-143.51;100.00
44309;BME280;30022;55.846;37.340;2023-01-29T06:32:55;47066.50;;;-143.51;100.00
44309;BME280;30022;55.846;37.340;2023-01-29T06:35:23;47046.75;;;-143.51;100.00
44309;BME280;30022;55.846;37.340;2023-01-29T06:37:49;47052.69;;;-143.51;100.00
44309;BME280;30022;55.846;37.340;2023-01-29T06:40:14;47068.47;;;-143.51;100.00
44309;BME280;30022;55.846;37.340;2023-01-29T06:42:40;47070.47;;;-143.51;100.00
44309;BME280;30022;55.846;37.340;2023-01-29T06:45:06;47048.72;;;-143.51;100.00
44309;BME280;30022;55.846;37.340;2023-01-29T06:47:31;46985.53;;;-143.51;100.00
44309;BME280;30022;55.846;37.340;2023-01-29T06:49:57;46983.56;;;-143.51;100.00
44309;BME280;30022;55.846;37.340;2023-01-29T06:52:22;47009.22;;;-143.51;100.00
44309;BME280;30022;55.846;37.340;2023-01-29T06:54:50;47030.97;;;-143.51;100.00
44309;BME280;30022;55.846;37.340;2023-01-29T06:57:16;46995.41;;;-143.51;100.00
44309;BME280;30022;55.846;37.340;2023-01-29T06:59:41;47009.22;;;-143.51;100.00
44309;BME280;30022;55.846;37.340;2023-01-29T07:02:07;47060.59;;;-143.51;100.00
44309;BME280;30022;55.846;37.340;2023-01-29T07:04:33;46995.41;;;-143.51;100.00
44309;BME280;30022;55.846;37.340;2023-01-29T07:06:59;46985.53;;;-143.51;100.00
44309;BME280;30022;55.846;37.340;2023-01-29T07:09:25;46993.44;;;-143.51;100.00
44309;BME280;30022;55.846;37.340;2023-01-29T07:11:50;46973.69;;;-143.51;100.00
44309;BME280;30022;55.846;37.340;2023-01-29T07:14:16;47001.34;;;-143.51;100.00
44309;BME280;30022;55.846;37.340;2023-01-29T07:16:42;46991.47;;;-143.51;100.00
44309;BME280;30022;55.846;37.340;2023-01-29T07:19:07;46991.47;;;-143.51;100.00
44309;BME280;30022;55.846;37.340;2023-01-29T07:21:33;47009.22;;;-143.51;100.00
44309;BME280;30022;55.846;37.340;2023-01-29T07:23:58;46981.59;;;-143.51;100.00
44309;BME280;30022;55.846;37.340;2023-01-29T07:26:24;46997.38;;;-143.51;100.00
44309;BME280;30022;55.846;37.340;2023-01-29T07:28:50;46997.38;;;-143.51;100.00
44309;BME280;30022;55.846;37.340;2023-01-29T07:31:15;46973.69;;;-143.51;100.00
44309;BME280;30022;55.846;37.340;2023-01-29T07:33:44;46979.59;;;-143.51;100.00
44309;BME280;30022;55.846;37.340;2023-01-29T07:36:10;46946.03;;;-143.51;100.00
44309;BME280;30022;55.846;37.340;2023-01-29T07:38:36;46979.59;;;-143.51;100.00
44309;BME280;30022;55.846;37.340;2023-01-29T07:41:02;46965.78;;;-143.51;100.00
44309;BME280;30022;55.846;37.340;2023-01-29T07:43:27;46953.94;;;-143.51;100.00
44309;BME280;30022;55.846;37.340;2023-01-29T07:45:53;46957.88;;;-143.51;100.00
44309;BME280;30022;55.846;37.340;2023-01-29T07:48:20;47001.34;;;-143.51;100.00
44309;BME280;30022;55.846;37.340;2023-01-29T07:50:52;46957.88;;;-143.51;100.00
44309;BME280;30022;55.846;37.340;2023-01-29T07:53:19;46922.34;;;-143.51;100.00
44309;BME280;30022;55.846;37.340;2023-01-29T07:55:48;46932.22;;;-143.51;100.00
44309;BME280;30022;55.846;37.340;2023-01-29T07:58:18;46936.16;;;-143.51;100.00
44309;BME280;30022;55.846;37.340;2023-01-29T08:00:44;46916.41;;;-143.51;100.00
44309;BME280;30022;55.846;37.340;2023-01-29T08:03:11;46934.19;;;-143.51;100.00
44309;BME280;30022;55.846;37.340;2023-01-29T08:05:37;46904.56;;;-143.51;100.00
44309;BME280;30022;55.846;37.340;2023-01-29T08:08:02;46938.13;;;-143.51;100.00
44309;BME280;30022;55.846;37.340;2023-01-29T08:10:28;46934.19;;;-143.51;100.00
44309;BME280;30022;55.846;37.340;2023-01-29T08:12:58;46930.22;;;-143.51;100.00
44309;BME280;30022;55.846;37.340;2023-01-29T08:15:23;46916.41;;;-143.51;100.00
44309;BME280;30022;55.846;37.340;2023-01-29T08:17:50;46924.31;;;-143.51;100.00
44309;BME280;30022;55.846;37.340;2023-01-29T08:20:16;46910.47;;;-143.51;100.00
44309;BME280;30022;55.846;37.340;2023-01-29T08:22:42;46884.81;;;-143.51;100.00
44309;BME280;30022;55.846;37.340;2023-01-29T08:25:08;46904.56;;;-143.51;100.00
44309;BME280;30022;55.846;37.340;2023-01-29T08:27:34;46904.56;;;-143.51;100.00
44309;BME280;30022;55.846;37.340;2023-01-29T08:30:00;46912.47;;;-143.51;100.00
44309;BME280;30022;55.846;37.340;2023-01-29T08:32:25;46936.16;;;-143.51;100.00
44309;BME280;30022;55.846;37.340;2023-01-29T08:34:51;46914.44;;;-143.51;100.00
44309;BME280;30022;55.846;37.340;2023-01-29T08:37:16;46924.31;;;-143.51;100.00
44309;BME280;30022;55.846;37.340;2023-01-29T08:39:42;46922.34;;;-143.51;100.00
44309;BME280;30022;55.846;37.340;2023-01-29T08:42:08;46904.56;;;-143.51;100.00
44309;BME280;30022;55.846;37.340;2023-01-29T08:44:33;46918.38;;;-143.51;100.00
44309;BME280;30022;55.846;37.340;2023-01-29T08:46:59;46906.53;;;-143.51;100.00
44309;BME280;30022;55.846;37.340;2023-01-29T08:49:25;46896.66;;;-143.51;100.00
44309;BME280;30022;55.846;37.340;2023-01-29T08:51:50;46872.97;;;-143.51;100.00
44309;BME280;30022;55.846;37.340;2023-01-29T08:54:16;46890.72;;;-143.51;100.00
44309;BME280;30022;55.846;37.340;2023-01-29T08:56:42;46906.53;;;-143.51;100.00
44309;BME280;30022;55.846;37.340;2023-01-29T08:59:08;46918.38;;;-143.51;100.00
44309;BME280;30022;55.846;37.340;2023-01-29T09:01:34;46886.78;;;-143.51;100.00
44309;BME280;30022;55.846;37.340;2023-01-29T09:04:00;46910.47;;;-143.51;100.00
44309;BME280;30022;55.846;37.340;2023-01-29T09:06:26;46906.53;;;-143.51;100.00
44309;BME280;30022;55.846;37.340;2023-01-29T09:08:51;46880.84;;;-143.51;100.00
44309;BME280;30022;55.846;37.340;2023-01-29T09:11:17;46872.97;;;-143.51;100.00
44309;BME280;30022;55.846;37.340;2023-01-29T09:13:43;46865.06;;;-143.51;100.00
44309;BME280;30022;55.846;37.340;2023-01-29T09:16:09;46882.84;;;-143.51;100.00
44309;BME280;30022;55.846;37.340;2023-01-29T09:18:35;46872.97;;;-143.51;100.00
44309;BME280;30022;55.846;37.340;2023-01-29T09:21:01;46892.72;;;-143.51;100.00
44309;BME280;30022;55.846;37.340;2023-01-29T09:23:27;46888.75;;;-143.51;100.00
44309;BME280;30022;55.846;37.340;2023-01-29T09:25:53;46878.88;;;-143.51;100.00
44309;BME280;30022;55.846;37.340;2023-01-29T09:28:19;46843.34;;;-143.51;100.00
44309;BME280;30022;55.846;37.340;2023-01-29T09:30:45;46857.16;;;-143.51;100.00
44309;BME280;30022;55.846;37.340;2023-01-29T09:33:12;46855.19;;;-143.51;100.00
44309;BME280;30022;55.846;37.340;2023-01-29T09:35:40;46841.34;;;-143.51;100.00
44309;BME280;30022;55.846;37.340;2023-01-29T09:38:07;46835.44;;;-143.51;100.00
44309;BME280;30022;55.846;37.340;2023-01-29T09:40:40;46878.88;;;-143.51;100.00
44309;BME280;30022;55.846;37.340;2023-01-29T09:43:18;46874.94;;;-143.51;100.00
44309;BME280;30022;55.846;37.340;2023-01-29T09:45:54;46851.22;;;-143.51;100.00
44309;BME280;30022;55.846;37.340;2023-01-29T09:48:24;46843.34;;;-143.51;100.00
44309;BME280;30022;55.846;37.340;2023-01-29T09:50:51;46861.09;;;-143.51;100.00
44309;BME280;30022;55.846;37.340;2023-01-29T09:53:29;46867.03;;;-143.51;100.00
44309;BME280;30022;55.846;37.340;2023-01-29T09:56:09;46861.09;;;-143.51;100.00
44309;BME280;30022;55.846;37.340;2023-01-29T09:58:40;46857.16;;;-143.51;100.00
44309;BME280;30022;55.846;37.340;2023-01-29T10:01:11;46833.47;;;-143.51;100.00
44309;BME280;30022;55.846;37.340;2023-01-29T10:22:10;46865.06;;;-143.51;100.00
44309;BME280;30022;55.846;37.340;2023-01-29T10:24:49;46874.94;;;-143.51;100.00
44309;BME280;30022;55.846;37.340;2023-01-29T10:27:16;46839.38;;;-143.51;100.00
44309;BME280;30022;55.846;37.340;2023-01-29T10:29:43;46857.16;;;-143.51;100.00
44309;BME280;30022;55.846;37.340;2023-01-29T10:32:16;46867.03;;;-143.51;100.00
44309;BME280;30022;55.846;37.340;2023-01-29T10:37:19;46872.97;;;-143.51;100.00
44309;BME280;30022;55.846;37.340;2023-01-29T10:39:48;46867.03;;;-143.51;100.00
44309;BME280;30022;55.846;37.340;2023-01-29T10:42:20;46892.72;;;-143.51;100.00
44309;BME280;30022;55.846;37.340;2023-01-29T10:44:52;46859.13;;;-143.51;100.00
44309;BME280;30022;55.846;37.340;2023-01-29T10:55:02;46894.69;;;-143.51;100.00
44309;BME280;30022;55.846;37.340;2023-01-29T10:57:37;46867.03;;;-143.51;100.00
44309;BME280;30022;55.846;37.340;2023-01-29T11:00:39;46859.13;;;-143.51;100.00
44309;BME280;30022;55.846;37.340;2023-01-29T11:02:58;46857.16;;;-143.51;100.00
44309;BME280;30022;55.846;37.340;2023-01-29T11:05:36;46857.16;;;-143.51;100.00
44309;BME280;30022;55.846;37.340;2023-01-29T11:08:15;46886.78;;;-143.51;100.00
44309;BME280;30022;55.846;37.340;2023-01-29T11:10:53;46867.03;;;-143.51;100.00
44309;BME280;30022;55.846;37.340;2023-01-29T11:13:25;46855.19;;;-143.51;100.00
44309;BME280;30022;55.846;37.340;2023-01-29T11:15:53;46870.97;;;-143.51;100.00
44309;BME280;30022;55.846;37.340;2023-01-29T11:18:19;46839.38;;;-143.51;100.00
44309;BME280;30022;55.846;37.340;2023-01-29T11:20:44;46851.22;;;-143.51;100.00
44309;BME280;30022;55.846;37.340;2023-01-29T11:23:27;46861.09;;;-143.51;100.00
44309;BME280;30022;55.846;37.340;2023-01-29T11:25:54;46863.09;;;-143.51;100.00
44309;BME280;30022;55.846;37.340;2023-01-29T11:31:49;46869.00;;;-143.51;100.00
44309;BME280;30022;55.846;37.340;2023-01-29T11:34:00;46857.16;;;-143.51;100.00
44309;BME280;30022;55.846;37.340;2023-01-29T11:36:36;46878.88;;;-143.51;100.00
44309;BME280;30022;55.846;37.340;2023-01-29T11:41:48;46882.84;;;-143.51;100.00
44309;BME280;30022;55.846;37.340;2023-01-29T11:44:17;46859.13;;;-143.51;100.00
44309;BME280;30022;55.846;37.340;2023-01-29T11:46:43;46847.28;;;-143.51;100.00
44309;BME280;30022;55.846;37.340;2023-01-29T11:49:14;46886.78;;;-143.51;100.00
44309;BME280;30022;55.846;37.340;2023-01-29T11:51:48;46857.16;;;-143.51;100.00
44309;BME280;30022;55.846;37.340;2023-01-29T11:54:15;46861.09;;;-143.51;100.00
44309;BME280;30022;55.846;37.340;2023-01-29T11:56:44;46843.34;;;-143.51;100.00
44309;BME280;30022;55.846;37.340;2023-01-29T12:01:55;46882.84;;;-143.51;100.00
44309;BME280;30022;55.846;37.340;2023-01-29T12:04:29;46847.28;;;-143.51;100.00
44309;BME280;30022;55.846;37.340;2023-01-29T12:06:55;46857.16;;;-143.51;100.00
44309;BME280;30022;55.846;37.340;2023-01-29T12:09:21;46863.09;;;-143.51;100.00
44309;BME280;30022;55.846;37.340;2023-01-29T12:11:48;46843.34;;;-143.51;100.00
44309;BME280;30022;55.846;37.340;2023-01-29T12:14:25;46904.56;;;-143.51;100.00
44309;BME280;30022;55.846;37.340;2023-01-29T12:16:52;46892.72;;;-143.51;100.00
44309;BME280;30022;55.846;37.340;2023-01-29T12:19:24;46886.78;;;-143.51;100.00
44309;BME280;30022;55.846;37.340;2023-01-29T12:24:35;46874.94;;;-143.51;100.00
44309;BME280;30022;55.846;37.340;2023-01-29T12:29:50;46874.94;;;-143.51;100.00
44309;BME280;30022;55.846;37.340;2023-01-29T12:32:29;46880.84;;;-143.51;100.00
44309;BME280;30022;55.846;37.340;2023-01-29T12:39:59;46906.53;;;-143.51;100.00
44309;BME280;30022;55.846;37.340;2023-01-29T12:42:29;46886.78;;;-143.51;100.00
44309;BME280;30022;55.846;37.340;2023-01-29T12:45:00;46886.78;;;-143.51;100.00
44309;BME280;30022;55.846;37.340;2023-01-29T12:47:35;46886.78;;;-143.51;100.00
44309;BME280;30022;55.846;37.340;2023-01-29T12:50:04;46924.31;;;-143.51;100.00
44309;BME280;30022;55.846;37.340;2023-01-29T12:52:42;46922.34;;;-143.51;100.00
44309;BME280;30022;55.846;37.340;2023-01-29T13:00:21;46930.22;;;-143.51;100.00
44309;BME280;30022;55.846;37.340;2023-01-29T13:05:18;46932.22;;;-143.51;100.00
44309;BME280;30022;55.846;37.340;2023-01-29T13:07:46;46926.28;;;-143.51;100.00
44309;BME280;30022;55.846;37.340;2023-01-29T13:10:16;46930.22;;;-143.51;100.00
44309;BME280;30022;55.846;37.340;2023-01-29T13:13:32;46896.66;;;-143.51;100.00
44309;BME280;30022;55.846;37.340;2023-01-29T13:15:37;46957.88;;;-143.51;100.00
44309;BME280;30022;55.846;37.340;2023-01-29T13:20:47;46942.09;;;-143.51;100.00
44309;BME280;30022;55.846;37.340;2023-01-29T13:23:24;46918.38;;;-143.51;100.00
44309;BME280;30022;55.846;37.340;2023-01-29T13:25:55;46898.63;;;-143.51;100.00
44309;BME280;30022;55.846;37.340;2023-01-29T13:28:22;46940.09;;;-143.51;100.00
44309;BME280;30022;55.846;37.340;2023-01-29T13:33:36;46928.25;;;-143.51;100.00
44309;BME280;30022;55.846;37.340;2023-01-29T13:36:02;46926.28;;;-143.51;100.00
44309;BME280;30022;55.846;37.340;2023-01-29T13:38:29;46934.19;;;-143.51;100.00
44309;BME280;30022;55.846;37.340;2023-01-29T13:41:04;46949.97;;;-143.51;100.00
44309;BME280;30022;55.846;37.340;2023-01-29T13:43:34;46922.34;;;-143.51;100.00
44309;BME280;30022;55.846;37.340;2023-01-29T13:46:11;46906.53;;;-143.51;100.00
44309;BME280;30022;55.846;37.340;2023-01-29T13:48:42;46910.47;;;-143.51;100.00
44309;BME280;30022;55.846;37.340;2023-01-29T13:51:15;46928.25;;;-143.51;100.00
44309;BME280;30022;55.846;37.340;2023-01-29T13:54:01;46936.16;;;-143.51;100.00
44309;BME280;30022;55.846;37.340;2023-01-29T13:58:58;46928.25;;;-143.51;100.00
44309;BME280;30022;55.846;37.340;2023-01-29T14:04:27;46965.78;;;-143.51;100.00
44309;BME280;30022;55.846;37.340;2023-01-29T14:06:57;46922.34;;;-143.51;100.00
44309;BME280;30022;55.846;37.340;2023-01-29T14:10:12;46948.00;;;-143.51;100.00
44309;BME280;30022;55.846;37.340;2023-01-29T14:17:13;46944.06;;;-143.51;100.00
44309;BME280;30022;55.846;37.340;2023-01-29T14:19:45;46942.09;;;-143.51;100.00
44309;BME280;30022;55.846;37.340;2023-01-29T14:22:17;46918.38;;;-143.51;100.00